sensor_id;sensor_type;location;lat;lon;timestamp;P1;durP1;ratioP1;P2;durP2;ratioP2
44564;SDS011;30275;51.822;-0.326;2022-10-19T00:01:37;5.43;;;2.05;;
44564;SDS011;30275;51.822;-0.326;2022-10-19T00:04:03;6.88;;;2.40;;
44564;SDS011;30275;51.822;-0.326;2022-10-19T00:06:30;10.02;;;2.78;;
44564;SDS011;30275;51.822;-0.326;2022-10-19T00:08:59;6.57;;;1.88;;
44564;SDS011;30275;51.822;-0.326;2022-10-19T00:11:26;5.13;;;1.70;;
44564;SDS011;30275;51.822;-0.326;2022-10-19T00:13:54;7.07;;;2.28;;
44564;SDS011;30275;51.822;-0.326;2022-10-19T00:16:21;5.78;;;1.98;;
44564;SDS011;30275;51.822;-0.326;2022-10-19T00:18:47;12.75;;;2.15;;
44564;SDS011;30275;51.822;-0.326;2022-10-19T00:21:15;8.73;;;1.80;;
44564;SDS011;30275;51.822;-0.326;2022-10-19T00:23:42;6.18;;;2.20;;
44564;SDS011;30275;51.822;-0.326;2022-10-19T00:26:08;5.35;;;2.60;;
44564;SDS011;30275;51.822;-0.326;2022-10-19T00:28:34;5.22;;;2.22;;
44564;SDS011;30275;51.822;-0.326;2022-10-19T00:31:01;4.90;;;2.20;;
44564;SDS011;30275;51.822;-0.326;2022-10-19T00:33:28;9.60;;;3.35;;
44564;SDS011;30275;51.822;-0.326;2022-10-19T00:35:54;8.60;;;1.85;;
44564;SDS011;30275;51.822;-0.326;2022-10-19T00:38:22;8.63;;;3.10;;
44564;SDS011;30275;51.822;-0.326;2022-10-19T00:40:48;6.60;;;2.63;;
44564;SDS011;30275;51.822;-0.326;2022-10-19T00:43:14;4.78;;;1.90;;
44564;SDS011;30275;51.822;-0.326;2022-10-19T00:45:46;4.63;;;1.98;;
44564;SDS011;30275;51.822;-0.326;2022-10-19T00:48:14;8.43;;;2.33;;
44564;SDS011;30275;51.822;-0.326;2022-10-19T00:50:43;11.15;;;2.15;;
44564;SDS011;30275;51.822;-0.326;2022-10-19T00:53:10;8.20;;;2.20;;
44564;SDS011;30275;51.822;-0.326;2022-10-19T00:55:36;5.72;;;2.17;;
44564;SDS011;30275;51.822;-0.326;2022-10-19T00:58:05;8.23;;;2.47;;
44564;SDS011;30275;51.822;-0.326;2022-10-19T01:00:31;9.73;;;2.05;;
44564;SDS011;30275;51.822;-0.326;2022-10-19T01:02:58;15.73;;;3.10;;
44564;SDS011;30275;51.822;-0.326;2022-10-19T01:05:25;10.98;;;2.85;;
44564;SDS011;30275;51.822;-0.326;2022-10-19T01:07:52;9.27;;;2.10;;
44564;SDS011;30275;51.822;-0.326;2022-10-19T01:10:18;8.85;;;2.28;;
44564;SDS011;30275;51.822;-0.326;2022-10-19T01:26:36;6.80;;;2.55;;
44564;SDS011;30275;51.822;-0.326;2022-10-19T01:37:07;4.85;;;2.35;;
44564;SDS011;30275;51.822;-0.326;2022-10-19T01:40:45;7.13;;;1.83;;
44564;SDS011;30275;51.822;-0.326;2022-10-19T01:42:58;7.60;;;2.22;;
44564;SDS011;30275;51.822;-0.326;2022-10-19T01:45:37;6.57;;;1.75;;
44564;SDS011;30275;51.822;-0.326;2022-10-19T01:48:13;7.35;;;2.20;;
44564;SDS011;30275;51.822;-0.326;2022-10-19T01:53:24;8.98;;;2.95;;
44564;SDS011;30275;51.822;-0.326;2022-10-19T01:55:52;8.80;;;2.28;;
44564;SDS011;30275;51.822;-0.326;2022-10-19T01:58:21;5.40;;;1.70;;
44564;SDS011;30275;51.822;-0.326;2022-10-19T02:00:51;8.20;;;1.92;;
44564;SDS011;30275;51.822;-0.326;2022-10-19T02:03:19;9.05;;;2.33;;
44564;SDS011;30275;51.822;-0.326;2022-10-19T02:05:47;7.13;;;2.15;;
44564;SDS011;30275;51.822;-0.326;2022-10-19T02:08:24;10.55;;;1.88;;
44564;SDS011;30275;51.822;-0.326;2022-10-19T02:10:54;7.10;;;1.92;;
44564;SDS011;30275;51.822;-0.326;2022-10-19T02:13:21;14.38;;;2.25;;
44564;SDS011;30275;51.822;-0.326;2022-10-19T02:15:49;6.22;;;2.10;;
44564;SDS011;30275;51.822;-0.326;2022-10-19T02:18:21;5.55;;;1.90;;
44564;SDS011;30275;51.822;-0.326;2022-10-19T02:23:17;9.73;;;2.20;;
44564;SDS011;30275;51.822;-0.326;2022-10-19T02:25:46;7.55;;;1.85;;
44564;SDS011;30275;51.822;-0.326;2022-10-19T02:28:12;5.55;;;1.75;;
44564;SDS011;30275;51.822;-0.326;2022-10-19T02:30:37;8.88;;;2.75;;
44564;SDS011;30275;51.822;-0.326;2022-10-19T02:33:03;8.10;;;2.10;;
44564;SDS011;30275;51.822;-0.326;2022-10-19T02:35:29;8.50;;;2.25;;
44564;SDS011;30275;51.822;-0.326;2022-10-19T02:37:56;8.85;;;2.00;;
44564;SDS011;30275;51.822;-0.326;2022-10-19T02:40:24;6.70;;;1.73;;
44564;SDS011;30275;51.822;-0.326;2022-10-19T02:42:51;9.90;;;2.63;;
44564;SDS011;30275;51.822;-0.326;2022-10-19T02:45:32;7.87;;;1.83;;
44564;SDS011;30275;51.822;-0.326;2022-10-19T02:48:03;7.65;;;2.10;;
44564;SDS011;30275;51.822;-0.326;2022-10-19T02:50:34;4.93;;;1.80;;
44564;SDS011;30275;51.822;-0.326;2022-10-19T02:53:00;8.73;;;2.13;;
44564;SDS011;30275;51.822;-0.326;2022-10-19T02:55:25;3.88;;;1.77;;
44564;SDS011;30275;51.822;-0.326;2022-10-19T02:57:53;6.95;;;1.90;;
44564;SDS011;30275;51.822;-0.326;2022-10-19T03:00:19;11.73;;;2.05;;
44564;SDS011;30275;51.822;-0.326;2022-10-19T03:02:45;9.00;;;2.03;;
44564;SDS011;30275;51.822;-0.326;2022-10-19T03:05:10;8.57;;;2.20;;
44564;SDS011;30275;51.822;-0.326;2022-10-19T03:07:36;7.80;;;2.30;;
44564;SDS011;30275;51.822;-0.326;2022-10-19T03:10:01;8.48;;;2.25;;
44564;SDS011;30275;51.822;-0.326;2022-10-19T03:12:27;12.93;;;2.95;;
44564;SDS011;30275;51.822;-0.326;2022-10-19T03:14:53;13.60;;;2.25;;
44564;SDS011;30275;51.822;-0.326;2022-10-19T03:17:18;10.15;;;2.50;;
44564;SDS011;30275;51.822;-0.326;2022-10-19T03:19:44;5.50;;;2.13;;
44564;SDS011;30275;51.822;-0.326;2022-10-19T03:22:10;9.25;;;2.13;;
44564;SDS011;30275;51.822;-0.326;2022-10-19T03:24:37;7.10;;;1.75;;
44564;SDS011;30275;51.822;-0.326;2022-10-19T03:27:02;7.43;;;2.33;;
44564;SDS011;30275;51.822;-0.326;2022-10-19T03:29:28;8.30;;;1.98;;
44564;SDS011;30275;51.822;-0.326;2022-10-19T03:31:54;9.32;;;1.80;;
44564;SDS011;30275;51.822;-0.326;2022-10-19T03:34:19;8.98;;;2.03;;
44564;SDS011;30275;51.822;-0.326;2022-10-19T03:36:45;10.35;;;2.28;;
44564;SDS011;30275;51.822;-0.326;2022-10-19T03:39:11;5.95;;;2.10;;
44564;SDS011;30275;51.822;-0.326;2022-10-19T03:41:38;10.98;;;2.03;;
44564;SDS011;30275;51.822;-0.326;2022-10-19T03:44:05;3.58;;;1.75;;
44564;SDS011;30275;51.822;-0.326;2022-10-19T03:46:32;15.45;;;2.50;;
44564;SDS011;30275;51.822;-0.326;2022-10-19T03:48:58;10.15;;;2.40;;
44564;SDS011;30275;51.822;-0.326;2022-10-19T03:51:25;9.68;;;2.35;;
44564;SDS011;30275;51.822;-0.326;2022-10-19T03:54:05;7.82;;;2.08;;
44564;SDS011;30275;51.822;-0.326;2022-10-19T03:56:33;11.10;;;2.40;;
44564;SDS011;30275;51.822;-0.326;2022-10-19T03:59:00;6.90;;;2.10;;
44564;SDS011;30275;51.822;-0.326;2022-10-19T04:01:28;9.63;;;1.80;;
44564;SDS011;30275;51.822;-0.326;2022-10-19T04:03:59;8.17;;;2.00;;
44564;SDS011;30275;51.822;-0.326;2022-10-19T04:06:28;14.32;;;2.35;;
44564;SDS011;30275;51.822;-0.326;2022-10-19T04:09:01;8.98;;;2.33;;
44564;SDS011;30275;51.822;-0.326;2022-10-19T04:11:28;9.65;;;3.70;;
44564;SDS011;30275;51.822;-0.326;2022-10-19T04:13:55;6.65;;;2.75;;
44564;SDS011;30275;51.822;-0.326;2022-10-19T04:16:23;7.40;;;2.38;;
44564;SDS011;30275;51.822;-0.326;2022-10-19T04:18:49;9.45;;;2.47;;
44564;SDS011;30275;51.822;-0.326;2022-10-19T04:21:25;10.68;;;2.80;;
44564;SDS011;30275;51.822;-0.326;2022-10-19T04:23:53;8.82;;;2.55;;
44564;SDS011;30275;51.822;-0.326;2022-10-19T04:26:31;11.52;;;2.67;;
44564;SDS011;30275;51.822;-0.326;2022-10-19T04:28:58;10.05;;;3.20;;
44564;SDS011;30275;51.822;-0.326;2022-10-19T04:31:25;11.13;;;3.28;;
44564;SDS011;30275;51.822;-0.326;2022-10-19T04:33:51;13.40;;;2.92;;
44564;SDS011;30275;51.822;-0.326;2022-10-19T04:36:17;8.32;;;2.70;;
44564;SDS011;30275;51.822;-0.326;2022-10-19T04:38:43;5.88;;;2.58;;
44564;SDS011;30275;51.822;-0.326;2022-10-19T04:41:10;6.65;;;2.60;;
44564;SDS011;30275;51.822;-0.326;2022-10-19T04:43:38;12.02;;;3.13;;
44564;SDS011;30275;51.822;-0.326;2022-10-19T04:46:04;5.07;;;2.30;;
44564;SDS011;30275;51.822;-0.326;2022-10-19T04:48:32;5.88;;;2.38;;
44564;SDS011;30275;51.822;-0.326;2022-10-19T04:50:59;13.73;;;3.17;;
44564;SDS011;30275;51.822;-0.326;2022-10-19T04:53:25;7.70;;;2.63;;
44564;SDS011;30275;51.822;-0.326;2022-10-19T04:55:51;10.23;;;2.75;;
44564;SDS011;30275;51.822;-0.326;2022-10-19T04:58:17;8.45;;;2.38;;
44564;SDS011;30275;51.822;-0.326;2022-10-19T05:00:42;11.45;;;2.42;;
44564;SDS011;30275;51.822;-0.326;2022-10-19T05:03:08;4.07;;;2.45;;
44564;SDS011;30275;51.822;-0.326;2022-10-19T05:05:34;8.07;;;2.50;;
44564;SDS011;30275;51.822;-0.326;2022-10-19T05:07:59;14.63;;;2.95;;
44564;SDS011;30275;51.822;-0.326;2022-10-19T05:10:26;10.13;;;2.78;;
44564;SDS011;30275;51.822;-0.326;2022-10-19T05:12:51;9.00;;;3.35;;
44564;SDS011;30275;51.822;-0.326;2022-10-19T05:15:17;11.02;;;3.03;;
44564;SDS011;30275;51.822;-0.326;2022-10-19T05:17:43;8.20;;;3.22;;
44564;SDS011;30275;51.822;-0.326;2022-10-19T05:20:08;7.00;;;2.65;;
44564;SDS011;30275;51.822;-0.326;2022-10-19T05:22:37;11.02;;;3.40;;
44564;SDS011;30275;51.822;-0.326;2022-10-19T05:25:03;11.55;;;3.25;;
44564;SDS011;30275;51.822;-0.326;2022-10-19T05:27:30;11.30;;;3.08;;
44564;SDS011;30275;51.822;-0.326;2022-10-19T05:29:55;12.07;;;3.13;;
44564;SDS011;30275;51.822;-0.326;2022-10-19T05:32:21;18.42;;;4.03;;
44564;SDS011;30275;51.822;-0.326;2022-10-19T05:34:46;11.60;;;2.92;;
44564;SDS011;30275;51.822;-0.326;2022-10-19T05:37:12;9.82;;;3.22;;
44564;SDS011;30275;51.822;-0.326;2022-10-19T05:39:38;9.10;;;3.30;;
44564;SDS011;30275;51.822;-0.326;2022-10-19T05:42:03;9.07;;;3.83;;
44564;SDS011;30275;51.822;-0.326;2022-10-19T05:44:29;12.85;;;3.28;;
44564;SDS011;30275;51.822;-0.326;2022-10-19T05:46:54;11.98;;;3.25;;
44564;SDS011;30275;51.822;-0.326;2022-10-19T05:49:21;12.95;;;4.40;;
44564;SDS011;30275;51.822;-0.326;2022-10-19T05:51:47;13.13;;;3.00;;
44564;SDS011;30275;51.822;-0.326;2022-10-19T05:54:13;12.55;;;4.20;;
44564;SDS011;30275;51.822;-0.326;2022-10-19T05:56:39;13.63;;;4.00;;
44564;SDS011;30275;51.822;-0.326;2022-10-19T05:59:06;11.00;;;3.83;;
44564;SDS011;30275;51.822;-0.326;2022-10-19T06:01:33;12.27;;;4.10;;
44564;SDS011;30275;51.822;-0.326;2022-10-19T06:03:59;8.10;;;3.33;;
44564;SDS011;30275;51.822;-0.326;2022-10-19T06:06:26;15.15;;;4.55;;
44564;SDS011;30275;51.822;-0.326;2022-10-19T06:08:53;12.45;;;3.00;;
44564;SDS011;30275;51.822;-0.326;2022-10-19T06:11:21;14.48;;;3.50;;
44564;SDS011;30275;51.822;-0.326;2022-10-19T06:13:55;11.07;;;3.57;;
44564;SDS011;30275;51.822;-0.326;2022-10-19T06:16:23;13.45;;;3.92;;
44564;SDS011;30275;51.822;-0.326;2022-10-19T06:18:51;9.73;;;3.28;;
44564;SDS011;30275;51.822;-0.326;2022-10-19T06:21:18;10.88;;;3.60;;
44564;SDS011;30275;51.822;-0.326;2022-10-19T06:23:50;8.88;;;2.90;;
44564;SDS011;30275;51.822;-0.326;2022-10-19T06:26:17;18.45;;;4.68;;
44564;SDS011;30275;51.822;-0.326;2022-10-19T06:28:43;7.95;;;2.97;;
44564;SDS011;30275;51.822;-0.326;2022-10-19T06:31:09;9.20;;;2.72;;
44564;SDS011;30275;51.822;-0.326;2022-10-19T06:33:37;8.40;;;2.95;;
44564;SDS011;30275;51.822;-0.326;2022-10-19T06:36:08;15.43;;;3.20;;
44564;SDS011;30275;51.822;-0.326;2022-10-19T06:38:38;13.07;;;4.07;;
44564;SDS011;30275;51.822;-0.326;2022-10-19T06:41:04;14.80;;;3.63;;
44564;SDS011;30275;51.822;-0.326;2022-10-19T06:43:30;11.13;;;3.00;;
44564;SDS011;30275;51.822;-0.326;2022-10-19T06:45:56;14.93;;;4.25;;
44564;SDS011;30275;51.822;-0.326;2022-10-19T06:48:22;14.95;;;3.80;;
44564;SDS011;30275;51.822;-0.326;2022-10-19T06:50:54;16.23;;;3.50;;
44564;SDS011;30275;51.822;-0.326;2022-10-19T06:53:24;13.68;;;3.35;;
44564;SDS011;30275;51.822;-0.326;2022-10-19T06:55:51;11.40;;;3.28;;
44564;SDS011;30275;51.822;-0.326;2022-10-19T06:58:17;11.30;;;3.33;;
44564;SDS011;30275;51.822;-0.326;2022-10-19T07:00:42;6.72;;;3.72;;
44564;SDS011;30275;51.822;-0.326;2022-10-19T07:03:08;9.60;;;4.00;;
44564;SDS011;30275;51.822;-0.326;2022-10-19T07:05:34;12.68;;;3.92;;
44564;SDS011;30275;51.822;-0.326;2022-10-19T07:07:59;13.00;;;4.82;;
44564;SDS011;30275;51.822;-0.326;2022-10-19T07:10:25;15.35;;;4.50;;
44564;SDS011;30275;51.822;-0.326;2022-10-19T07:12:50;10.82;;;3.95;;
44564;SDS011;30275;51.822;-0.326;2022-10-19T07:15:16;8.60;;;3.72;;
44564;SDS011;30275;51.822;-0.326;2022-10-19T07:17:42;17.20;;;4.30;;
44564;SDS011;30275;51.822;-0.326;2022-10-19T07:20:07;15.15;;;4.63;;
44564;SDS011;30275;51.822;-0.326;2022-10-19T07:22:34;9.77;;;3.67;;
44564;SDS011;30275;51.822;-0.326;2022-10-19T07:25:00;14.98;;;4.43;;
44564;SDS011;30275;51.822;-0.326;2022-10-19T07:27:26;12.98;;;4.82;;
44564;SDS011;30275;51.822;-0.326;2022-10-19T07:29:52;13.20;;;5.00;;
44564;SDS011;30275;51.822;-0.326;2022-10-19T07:32:17;16.42;;;4.47;;
44564;SDS011;30275;51.822;-0.326;2022-10-19T07:34:43;17.25;;;4.43;;
44564;SDS011;30275;51.822;-0.326;2022-10-19T07:37:09;9.10;;;3.95;;
44564;SDS011;30275;51.822;-0.326;2022-10-19T07:39:35;11.50;;;3.55;;
44564;SDS011;30275;51.822;-0.326;2022-10-19T07:42:00;10.50;;;3.30;;
44564;SDS011;30275;51.822;-0.326;2022-10-19T07:44:26;7.95;;;4.00;;
44564;SDS011;30275;51.822;-0.326;2022-10-19T07:46:52;16.25;;;4.38;;
44564;SDS011;30275;51.822;-0.326;2022-10-19T07:49:17;16.50;;;4.30;;
44564;SDS011;30275;51.822;-0.326;2022-10-19T07:51:44;13.60;;;3.65;;
44564;SDS011;30275;51.822;-0.326;2022-10-19T07:54:10;8.02;;;3.13;;
44564;SDS011;30275;51.822;-0.326;2022-10-19T07:56:37;17.35;;;5.20;;
44564;SDS011;30275;51.822;-0.326;2022-10-19T07:59:03;8.13;;;3.45;;
44564;SDS011;30275;51.822;-0.326;2022-10-19T08:01:30;15.30;;;3.83;;
44564;SDS011;30275;51.822;-0.326;2022-10-19T08:03:58;13.63;;;4.80;;
44564;SDS011;30275;51.822;-0.326;2022-10-19T08:06:24;14.20;;;4.35;;
44564;SDS011;30275;51.822;-0.326;2022-10-19T08:08:51;9.95;;;3.78;;
44564;SDS011;30275;51.822;-0.326;2022-10-19T08:11:18;14.75;;;4.10;;
44564;SDS011;30275;51.822;-0.326;2022-10-19T08:13:45;11.90;;;3.85;;
44564;SDS011;30275;51.822;-0.326;2022-10-19T08:19:05;8.27;;;5.13;;
44564;SDS011;30275;51.822;-0.326;2022-10-19T08:21:34;12.80;;;4.20;;
44564;SDS011;30275;51.822;-0.326;2022-10-19T08:24:01;12.15;;;4.22;;
44564;SDS011;30275;51.822;-0.326;2022-10-19T08:26:27;11.32;;;4.20;;
44564;SDS011;30275;51.822;-0.326;2022-10-19T08:29:02;15.25;;;5.80;;
44564;SDS011;30275;51.822;-0.326;2022-10-19T08:31:29;12.38;;;4.28;;
44564;SDS011;30275;51.822;-0.326;2022-10-19T08:33:55;13.15;;;4.57;;
44564;SDS011;30275;51.822;-0.326;2022-10-19T08:36:21;11.50;;;4.72;;
44564;SDS011;30275;51.822;-0.326;2022-10-19T08:38:47;11.32;;;4.07;;
44564;SDS011;30275;51.822;-0.326;2022-10-19T08:44:06;14.75;;;4.13;;
44564;SDS011;30275;51.822;-0.326;2022-10-19T08:47:08;12.50;;;3.72;;
44564;SDS011;30275;51.822;-0.326;2022-10-19T08:49:42;12.63;;;4.20;;
44564;SDS011;30275;51.822;-0.326;2022-10-19T08:52:13;11.05;;;3.97;;
44564;SDS011;30275;51.822;-0.326;2022-10-19T08:54:50;15.25;;;4.03;;
44564;SDS011;30275;51.822;-0.326;2022-10-19T09:00:37;13.90;;;3.45;;
44564;SDS011;30275;51.822;-0.326;2022-10-19T09:03:21;13.63;;;3.90;;
44564;SDS011;30275;51.822;-0.326;2022-10-19T09:05:52;15.60;;;3.88;;
44564;SDS011;30275;51.822;-0.326;2022-10-19T09:08:53;10.23;;;3.33;;
44564;SDS011;30275;51.822;-0.326;2022-10-19T09:11:26;7.60;;;2.33;;
44564;SDS011;30275;51.822;-0.326;2022-10-19T09:17:01;10.73;;;3.28;;
44564;SDS011;30275;51.822;-0.326;2022-10-19T09:19:33;9.27;;;3.28;;
44564;SDS011;30275;51.822;-0.326;2022-10-19T09:22:06;8.07;;;3.00;;
44564;SDS011;30275;51.822;-0.326;2022-10-19T09:24:53;8.15;;;3.13;;
44564;SDS011;30275;51.822;-0.326;2022-10-19T09:27:28;14.30;;;3.20;;
44564;SDS011;30275;51.822;-0.326;2022-10-19T09:30:04;10.65;;;3.15;;
44564;SDS011;30275;51.822;-0.326;2022-10-19T09:32:59;12.20;;;3.10;;
44564;SDS011;30275;51.822;-0.326;2022-10-19T09:38:02;10.57;;;3.13;;
44564;SDS011;30275;51.822;-0.326;2022-10-19T09:40:31;7.85;;;3.15;;
44564;SDS011;30275;51.822;-0.326;2022-10-19T09:42:58;10.70;;;2.72;;
44564;SDS011;30275;51.822;-0.326;2022-10-19T09:48:38;12.82;;;3.33;;
44564;SDS011;30275;51.822;-0.326;2022-10-19T09:51:12;13.45;;;3.15;;
44564;SDS011;30275;51.822;-0.326;2022-10-19T09:56:21;12.10;;;3.40;;
44564;SDS011;30275;51.822;-0.326;2022-10-19T09:58:50;12.23;;;3.00;;
44564;SDS011;30275;51.822;-0.326;2022-10-19T10:01:36;8.32;;;2.55;;
44564;SDS011;30275;51.822;-0.326;2022-10-19T10:04:04;11.20;;;3.20;;
44564;SDS011;30275;51.822;-0.326;2022-10-19T10:06:35;14.82;;;3.83;;
44564;SDS011;30275;51.822;-0.326;2022-10-19T10:09:03;8.07;;;2.78;;
44564;SDS011;30275;51.822;-0.326;2022-10-19T10:11:30;11.90;;;4.55;;
44564;SDS011;30275;51.822;-0.326;2022-10-19T10:14:02;11.05;;;3.22;;
44564;SDS011;30275;51.822;-0.326;2022-10-19T10:16:33;10.23;;;3.25;;
44564;SDS011;30275;51.822;-0.326;2022-10-19T10:19:06;14.88;;;3.25;;
44564;SDS011;30275;51.822;-0.326;2022-10-19T10:21:47;9.35;;;2.97;;
44564;SDS011;30275;51.822;-0.326;2022-10-19T10:24:20;11.45;;;2.60;;
44564;SDS011;30275;51.822;-0.326;2022-10-19T10:26:48;12.57;;;2.70;;
44564;SDS011;30275;51.822;-0.326;2022-10-19T10:31:47;10.02;;;3.05;;
44564;SDS011;30275;51.822;-0.326;2022-10-19T10:34:38;10.68;;;2.80;;
44564;SDS011;30275;51.822;-0.326;2022-10-19T10:37:03;15.93;;;3.13;;
44564;SDS011;30275;51.822;-0.326;2022-10-19T10:39:30;11.30;;;2.78;;
44564;SDS011;30275;51.822;-0.326;2022-10-19T10:41:59;11.60;;;2.72;;
44564;SDS011;30275;51.822;-0.326;2022-10-19T10:44:29;9.25;;;3.17;;
44564;SDS011;30275;51.822;-0.326;2022-10-19T10:46:59;12.52;;;2.42;;
44564;SDS011;30275;51.822;-0.326;2022-10-19T10:49:27;14.48;;;3.45;;
44564;SDS011;30275;51.822;-0.326;2022-10-19T10:51:54;8.60;;;2.25;;
44564;SDS011;30275;51.822;-0.326;2022-10-19T10:54:29;15.57;;;2.65;;
44564;SDS011;30275;51.822;-0.326;2022-10-19T11:04:39;10.00;;;2.42;;
44564;SDS011;30275;51.822;-0.326;2022-10-19T11:07:22;6.60;;;2.22;;
44564;SDS011;30275;51.822;-0.326;2022-10-19T11:09:55;11.75;;;2.30;;
44564;SDS011;30275;51.822;-0.326;2022-10-19T11:12:34;8.98;;;2.10;;
44564;SDS011;30275;51.822;-0.326;2022-10-19T11:18:13;7.40;;;1.92;;
44564;SDS011;30275;51.822;-0.326;2022-10-19T11:20:48;10.57;;;2.63;;
44564;SDS011;30275;51.822;-0.326;2022-10-19T11:28:53;6.43;;;1.92;;
44564;SDS011;30275;51.822;-0.326;2022-10-19T11:34:02;7.78;;;2.03;;
44564;SDS011;30275;51.822;-0.326;2022-10-19T11:52:47;8.77;;;2.25;;
44564;SDS011;30275;51.822;-0.326;2022-10-19T11:55:45;10.48;;;2.58;;
44564;SDS011;30275;51.822;-0.326;2022-10-19T12:00:51;10.40;;;2.75;;
44564;SDS011;30275;51.822;-0.326;2022-10-19T12:11:48;7.93;;;1.83;;
44564;SDS011;30275;51.822;-0.326;2022-10-19T12:14:39;7.22;;;2.63;;
44564;SDS011;30275;51.822;-0.326;2022-10-19T12:17:09;8.15;;;2.35;;
44564;SDS011;30275;51.822;-0.326;2022-10-19T12:19:46;17.48;;;3.85;;
44564;SDS011;30275;51.822;-0.326;2022-10-19T12:22:24;6.07;;;2.03;;
44564;SDS011;30275;51.822;-0.326;2022-10-19T12:24:53;7.88;;;2.08;;
44564;SDS011;30275;51.822;-0.326;2022-10-19T12:27:25;7.95;;;2.28;;
44564;SDS011;30275;51.822;-0.326;2022-10-19T12:30:06;7.22;;;2.35;;
44564;SDS011;30275;51.822;-0.326;2022-10-19T12:39:02;8.60;;;2.40;;
44564;SDS011;30275;51.822;-0.326;2022-10-19T12:44:21;7.35;;;2.33;;
44564;SDS011;30275;51.822;-0.326;2022-10-19T12:46:54;6.80;;;2.17;;
44564;SDS011;30275;51.822;-0.326;2022-10-19T12:51:50;7.32;;;2.33;;
44564;SDS011;30275;51.822;-0.326;2022-10-19T12:54:24;5.97;;;1.98;;
44564;SDS011;30275;51.822;-0.326;2022-10-19T12:56:52;8.65;;;2.13;;
44564;SDS011;30275;51.822;-0.326;2022-10-19T12:59:23;10.05;;;2.50;;
44564;SDS011;30275;51.822;-0.326;2022-10-19T13:01:51;7.05;;;2.50;;
44564;SDS011;30275;51.822;-0.326;2022-10-19T13:04:19;7.60;;;2.10;;
44564;SDS011;30275;51.822;-0.326;2022-10-19T13:06:57;11.73;;;2.70;;
44564;SDS011;30275;51.822;-0.326;2022-10-19T13:09:32;6.03;;;2.42;;
44564;SDS011;30275;51.822;-0.326;2022-10-19T13:14:50;7.57;;;2.10;;
44564;SDS011;30275;51.822;-0.326;2022-10-19T13:22:46;9.98;;;3.30;;
44564;SDS011;30275;51.822;-0.326;2022-10-19T13:28:34;7.85;;;2.22;;
44564;SDS011;30275;51.822;-0.326;2022-10-19T13:52:08;5.20;;;2.17;;
44564;SDS011;30275;51.822;-0.326;2022-10-19T13:57:56;8.93;;;2.50;;
44564;SDS011;30275;51.822;-0.326;2022-10-19T14:03:52;7.10;;;1.98;;
44564;SDS011;30275;51.822;-0.326;2022-10-19T14:11:47;5.40;;;2.55;;
44564;SDS011;30275;51.822;-0.326;2022-10-19T14:14:17;8.40;;;2.78;;
44564;SDS011;30275;51.822;-0.326;2022-10-19T14:19:21;8.45;;;2.47;;
44564;SDS011;30275;51.822;-0.326;2022-10-19T14:21:51;4.47;;;1.73;;
44564;SDS011;30275;51.822;-0.326;2022-10-19T14:24:26;7.65;;;2.40;;
44564;SDS011;30275;51.822;-0.326;2022-10-19T14:26:54;8.27;;;2.55;;
44564;SDS011;30275;51.822;-0.326;2022-10-19T14:29:20;4.07;;;2.10;;
44564;SDS011;30275;51.822;-0.326;2022-10-19T14:31:46;7.32;;;2.28;;
44564;SDS011;30275;51.822;-0.326;2022-10-19T14:34:12;6.35;;;2.03;;
44564;SDS011;30275;51.822;-0.326;2022-10-19T14:36:42;7.20;;;2.88;;
44564;SDS011;30275;51.822;-0.326;2022-10-19T14:39:23;7.18;;;2.45;;
44564;SDS011;30275;51.822;-0.326;2022-10-19T14:42:02;7.53;;;2.10;;
44564;SDS011;30275;51.822;-0.326;2022-10-19T14:44:42;5.25;;;2.15;;
44564;SDS011;30275;51.822;-0.326;2022-10-19T14:47:18;7.45;;;2.45;;
44564;SDS011;30275;51.822;-0.326;2022-10-19T14:49:46;4.72;;;2.10;;
44564;SDS011;30275;51.822;-0.326;2022-10-19T14:52:14;5.75;;;2.17;;
44564;SDS011;30275;51.822;-0.326;2022-10-19T14:54:46;8.27;;;2.75;;
44564;SDS011;30275;51.822;-0.326;2022-10-19T15:00:23;8.35;;;2.30;;
44564;SDS011;30275;51.822;-0.326;2022-10-19T15:02:45;7.28;;;2.70;;
44564;SDS011;30275;51.822;-0.326;2022-10-19T15:05:19;9.88;;;2.33;;
44564;SDS011;30275;51.822;-0.326;2022-10-19T15:07:48;6.97;;;2.13;;
44564;SDS011;30275;51.822;-0.326;2022-10-19T15:10:18;6.75;;;2.15;;
44564;SDS011;30275;51.822;-0.326;2022-10-19T15:12:48;5.65;;;1.90;;
44564;SDS011;30275;51.822;-0.326;2022-10-19T15:17:59;6.32;;;2.08;;
44564;SDS011;30275;51.822;-0.326;2022-10-19T15:22:55;9.32;;;2.75;;
44564;SDS011;30275;51.822;-0.326;2022-10-19T15:25:25;6.75;;;2.45;;
44564;SDS011;30275;51.822;-0.326;2022-10-19T15:27:57;7.55;;;2.50;;
44564;SDS011;30275;51.822;-0.326;2022-10-19T15:30:43;8.55;;;3.00;;
44564;SDS011;30275;51.822;-0.326;2022-10-19T15:33:20;6.20;;;2.08;;
44564;SDS011;30275;51.822;-0.326;2022-10-19T15:35:46;7.18;;;2.65;;
44564;SDS011;30275;51.822;-0.326;2022-10-19T15:40:49;7.70;;;2.08;;
44564;SDS011;30275;51.822;-0.326;2022-10-19T15:46:05;9.90;;;3.10;;
44564;SDS011;30275;51.822;-0.326;2022-10-19T15:48:41;5.82;;;2.80;;
44564;SDS011;30275;51.822;-0.326;2022-10-19T15:54:00;6.63;;;2.72;;
44564;SDS011;30275;51.822;-0.326;2022-10-19T15:56:28;9.07;;;2.70;;
44564;SDS011;30275;51.822;-0.326;2022-10-19T15:58:57;7.07;;;2.95;;
44564;SDS011;30275;51.822;-0.326;2022-10-19T16:01:25;6.13;;;2.67;;
44564;SDS011;30275;51.822;-0.326;2022-10-19T16:03:52;9.00;;;2.42;;
44564;SDS011;30275;51.822;-0.326;2022-10-19T16:06:19;7.85;;;3.08;;
44564;SDS011;30275;51.822;-0.326;2022-10-19T16:08:47;10.27;;;3.47;;
44564;SDS011;30275;51.822;-0.326;2022-10-19T16:11:15;11.27;;;2.83;;
44564;SDS011;30275;51.822;-0.326;2022-10-19T16:13:42;8.30;;;2.65;;
44564;SDS011;30275;51.822;-0.326;2022-10-19T16:16:09;13.65;;;3.47;;
44564;SDS011;30275;51.822;-0.326;2022-10-19T16:18:38;7.95;;;2.40;;
44564;SDS011;30275;51.822;-0.326;2022-10-19T16:21:04;5.22;;;2.20;;
44564;SDS011;30275;51.822;-0.326;2022-10-19T16:23:30;6.35;;;2.67;;
44564;SDS011;30275;51.822;-0.326;2022-10-19T16:25:59;8.13;;;2.60;;
44564;SDS011;30275;51.822;-0.326;2022-10-19T16:28:25;7.43;;;2.75;;
44564;SDS011;30275;51.822;-0.326;2022-10-19T16:30:51;7.53;;;2.63;;
44564;SDS011;30275;51.822;-0.326;2022-10-19T16:33:17;11.98;;;3.55;;
44564;SDS011;30275;51.822;-0.326;2022-10-19T16:35:43;5.75;;;2.50;;
44564;SDS011;30275;51.822;-0.326;2022-10-19T16:38:09;10.68;;;3.17;;
44564;SDS011;30275;51.822;-0.326;2022-10-19T16:40:34;10.20;;;3.15;;
44564;SDS011;30275;51.822;-0.326;2022-10-19T16:43:00;7.97;;;2.70;;
44564;SDS011;30275;51.822;-0.326;2022-10-19T16:45:29;5.78;;;3.17;;
44564;SDS011;30275;51.822;-0.326;2022-10-19T16:47:55;7.13;;;3.20;;
44564;SDS011;30275;51.822;-0.326;2022-10-19T16:50:21;6.85;;;2.92;;
44564;SDS011;30275;51.822;-0.326;2022-10-19T16:52:46;11.23;;;4.28;;
44564;SDS011;30275;51.822;-0.326;2022-10-19T16:55:12;10.98;;;3.30;;
44564;SDS011;30275;51.822;-0.326;2022-10-19T16:57:38;5.68;;;2.80;;
44564;SDS011;30275;51.822;-0.326;2022-10-19T17:00:05;7.97;;;3.13;;
44564;SDS011;30275;51.822;-0.326;2022-10-19T17:02:33;10.30;;;3.03;;
44564;SDS011;30275;51.822;-0.326;2022-10-19T17:04:59;8.55;;;2.97;;
44564;SDS011;30275;51.822;-0.326;2022-10-19T17:07:24;8.38;;;3.40;;
44564;SDS011;30275;51.822;-0.326;2022-10-19T17:09:50;12.13;;;2.83;;
44564;SDS011;30275;51.822;-0.326;2022-10-19T17:12:15;7.25;;;3.10;;
44564;SDS011;30275;51.822;-0.326;2022-10-19T17:14:41;9.30;;;2.97;;
44564;SDS011;30275;51.822;-0.326;2022-10-19T17:17:07;8.55;;;3.47;;
44564;SDS011;30275;51.822;-0.326;2022-10-19T17:19:35;11.23;;;3.75;;
44564;SDS011;30275;51.822;-0.326;2022-10-19T17:22:01;9.82;;;2.72;;
44564;SDS011;30275;51.822;-0.326;2022-10-19T17:24:29;6.75;;;4.00;;
44564;SDS011;30275;51.822;-0.326;2022-10-19T17:26:55;12.98;;;3.75;;
44564;SDS011;30275;51.822;-0.326;2022-10-19T17:29:20;13.10;;;5.35;;
44564;SDS011;30275;51.822;-0.326;2022-10-19T17:31:47;13.80;;;3.75;;